createdAt,value
2019-05-16T00:00:35.836Z,0.00
2019-05-16T00:01:38.166Z,0.00
2019-05-16T00:02:37.730Z,0.00
2019-05-16T00:03:38.299Z,0.00
2019-05-16T00:04:37.764Z,0.00
2019-05-16T00:05:50.040Z,0.00
2019-05-16T00:06:35.765Z,0.00
2019-05-16T00:07:35.755Z,0.00
2019-05-16T00:08:35.743Z,0.00
2019-05-16T00:09:38.007Z,0.00
2019-05-16T00:10:35.721Z,0.00
2019-05-16T00:11:35.711Z,0.00
2019-05-16T00:12:35.717Z,0.00
2019-05-16T00:13:35.688Z,0.00
2019-05-16T00:14:35.676Z,0.00
2019-05-16T00:15:37.713Z,0.00
2019-05-16T00:16:37.857Z,0.00
2019-05-16T00:17:38.272Z,0.00
2019-05-16T00:18:35.638Z,0.00
2019-05-16T00:19:38.012Z,0.00
2019-05-16T00:20:35.609Z,0.00
2019-05-16T00:21:35.602Z,0.00
2019-05-16T00:22:35.591Z,0.00
2019-05-16T00:23:37.704Z,0.00
2019-05-16T00:24:35.564Z,0.00
2019-05-16T00:25:35.553Z,0.00
2019-05-16T00:26:35.541Z,0.00
2019-05-16T00:27:35.531Z,0.00
2019-05-16T00:28:37.861Z,0.00
2019-05-16T00:29:35.508Z,0.00
2019-05-16T00:30:35.499Z,0.00
2019-05-16T00:31:35.484Z,0.00
2019-05-16T00:32:35.473Z,0.00
2019-05-16T00:33:35.463Z,0.00
2019-05-16T00:34:35.450Z,0.00
2019-05-16T00:35:35.440Z,0.00
2019-05-16T00:36:35.427Z,0.00
2019-05-16T00:37:35.421Z,0.00
2019-05-16T00:38:35.404Z,0.00
2019-05-16T00:39:35.398Z,0.00
2019-05-16T00:40:35.381Z,0.00
2019-05-16T00:41:35.372Z,0.00
2019-05-16T00:42:35.358Z,0.00
2019-05-16T00:43:35.346Z,0.00
2019-05-16T00:44:35.335Z,0.00
2019-05-16T00:45:35.323Z,0.00
2019-05-16T00:46:35.312Z,0.00
2019-05-16T00:47:35.299Z,0.00
2019-05-16T00:48:35.288Z,0.00
2019-05-16T00:49:35.328Z,0.00
2019-05-16T00:50:35.265Z,0.00
2019-05-16T00:51:37.578Z,0.00
2019-05-16T00:52:35.242Z,0.00
2019-05-16T00:53:35.229Z,0.00
2019-05-16T00:54:35.268Z,0.00
2019-05-16T00:55:35.207Z,0.00
2019-05-16T00:56:35.195Z,0.00
2019-05-16T00:57:35.182Z,0.00
2019-05-16T00:58:35.172Z,0.00
2019-05-16T00:59:35.159Z,0.00
2019-05-16T01:00:35.147Z,0.00
2019-05-16T01:01:35.135Z,0.00
2019-05-16T01:02:35.122Z,0.00
2019-05-16T01:03:35.111Z,0.00
2019-05-16T01:04:35.149Z,0.00
2019-05-16T01:05:35.088Z,0.00
2019-05-16T01:06:35.075Z,0.00
2019-05-16T01:07:35.064Z,0.00
2019-05-16T01:08:35.054Z,0.00
2019-05-16T01:09:35.040Z,0.00
2019-05-16T01:10:35.027Z,0.00
2019-05-16T01:11:35.015Z,0.00
2019-05-16T01:12:35.003Z,0.00
2019-05-16T01:13:34.991Z,0.00
2019-05-16T01:14:34.978Z,0.00
2019-05-16T01:15:34.966Z,0.00
2019-05-16T01:16:34.955Z,0.00
2019-05-16T01:17:34.943Z,0.00
2019-05-16T01:18:34.930Z,0.00
2019-05-16T01:19:34.918Z,0.00
2019-05-16T01:20:34.906Z,0.00
2019-05-16T01:21:34.897Z,0.00
2019-05-16T01:22:34.881Z,0.00
2019-05-16T01:23:34.870Z,0.00
2019-05-16T01:24:34.861Z,0.00
2019-05-16T01:25:34.846Z,0.00
2019-05-16T01:26:34.833Z,0.00
2019-05-16T01:27:34.822Z,0.00
2019-05-16T01:28:34.808Z,0.00
2019-05-16T01:29:34.797Z,0.00
2019-05-16T01:30:34.784Z,0.00
2019-05-16T01:31:34.771Z,0.00
2019-05-16T01:32:34.759Z,0.00
2019-05-16T01:33:34.747Z,0.00
2019-05-16T01:34:34.734Z,0.00
2019-05-16T01:35:34.725Z,0.00
2019-05-16T01:36:37.997Z,0.00
2019-05-16T01:37:34.699Z,0.00
2019-05-16T01:38:34.686Z,0.00
2019-05-16T01:39:34.674Z,0.00
2019-05-16T01:40:34.662Z,0.00
2019-05-16T01:41:34.650Z,0.00
2019-05-16T01:42:34.636Z,0.00
2019-05-16T01:43:34.624Z,0.00
2019-05-16T01:44:34.616Z,0.00
2019-05-16T01:45:34.600Z,0.00
2019-05-16T01:46:34.586Z,0.00
2019-05-16T01:47:34.589Z,0.00
2019-05-16T01:48:34.562Z,0.00
2019-05-16T01:49:34.549Z,0.00
2019-05-16T01:50:34.593Z,0.00
2019-05-16T01:51:34.525Z,0.00
2019-05-16T01:52:34.513Z,0.00
2019-05-16T01:53:34.500Z,0.00
2019-05-16T01:54:34.488Z,0.00
2019-05-16T01:55:34.475Z,0.00
2019-05-16T01:56:34.462Z,0.00
2019-05-16T01:57:34.450Z,0.00
2019-05-16T01:58:34.437Z,0.00
2019-05-16T01:59:34.426Z,0.00
2019-05-16T02:00:37.708Z,0.00
2019-05-16T02:01:34.400Z,0.00
2019-05-16T02:02:34.387Z,0.00
2019-05-16T02:03:34.375Z,0.00
2019-05-16T02:04:34.368Z,0.00
2019-05-16T02:05:34.351Z,0.00
2019-05-16T02:06:46.426Z,0.00
2019-05-16T02:07:34.331Z,0.00
2019-05-16T02:08:34.312Z,0.00
2019-05-16T02:09:34.301Z,0.00
2019-05-16T02:10:34.287Z,0.00
2019-05-16T02:11:34.274Z,0.00
2019-05-16T02:12:34.262Z,0.00
2019-05-16T02:13:34.249Z,0.00
2019-05-16T02:14:34.237Z,0.00
2019-05-16T02:15:34.224Z,0.00
2019-05-16T02:16:34.211Z,0.00
2019-05-16T02:17:34.199Z,0.00
2019-05-16T02:18:34.186Z,0.00
2019-05-16T02:19:34.173Z,0.00
2019-05-16T02:20:34.211Z,0.00
2019-05-16T02:21:34.148Z,0.00
2019-05-16T02:22:34.138Z,0.00
2019-05-16T02:23:34.123Z,0.00
2019-05-16T02:24:34.110Z,0.00
2019-05-16T02:25:34.098Z,0.00
2019-05-16T02:26:34.087Z,0.00
2019-05-16T02:27:34.080Z,0.00
2019-05-16T02:28:40.099Z,0.00
2019-05-16T02:29:34.051Z,0.00
2019-05-16T02:30:34.035Z,0.00
2019-05-16T02:31:34.022Z,0.00
2019-05-16T02:32:34.009Z,0.00
2019-05-16T02:33:33.998Z,0.00
2019-05-16T02:34:33.986Z,0.00
2019-05-16T02:35:33.971Z,0.00
2019-05-16T02:36:33.958Z,0.00
2019-05-16T02:37:35.002Z,0.00
2019-05-16T02:38:33.931Z,0.00
2019-05-16T02:39:33.920Z,0.00
2019-05-16T02:40:33.908Z,0.00
2019-05-16T02:41:33.894Z,0.00
2019-05-16T02:42:33.880Z,0.00
2019-05-16T02:43:33.885Z,0.00
2019-05-16T02:44:33.867Z,0.00
2019-05-16T02:45:33.853Z,0.00
2019-05-16T02:46:33.831Z,0.00
2019-05-16T02:47:35.082Z,0.00
2019-05-16T02:48:35.504Z,0.00
2019-05-16T02:49:34.319Z,0.00
2019-05-16T02:50:33.780Z,0.00
2019-05-16T02:51:33.869Z,0.00
2019-05-16T02:52:33.755Z,0.00
2019-05-16T02:53:33.742Z,0.00
2019-05-16T02:54:33.732Z,0.00
2019-05-16T02:55:33.723Z,0.00
2019-05-16T02:56:33.705Z,0.00
2019-05-16T02:57:33.693Z,0.00
2019-05-16T02:58:33.680Z,0.00
2019-05-16T02:59:33.668Z,0.00
2019-05-16T03:00:33.655Z,0.00
2019-05-16T03:01:33.663Z,0.00
2019-05-16T03:02:33.630Z,0.00
2019-05-16T03:03:33.621Z,0.00
2019-05-16T03:04:33.607Z,0.00
2019-05-16T03:05:33.594Z,0.00
2019-05-16T03:06:33.597Z,0.00
2019-05-16T03:07:41.525Z,0.00
2019-05-16T03:08:33.555Z,0.00
2019-05-16T03:09:33.544Z,0.00
2019-05-16T03:10:33.531Z,0.00
2019-05-16T03:11:33.519Z,0.00
2019-05-16T03:12:33.507Z,4.00
2019-05-16T03:13:33.497Z,4.00
2019-05-16T03:14:33.494Z,4.00
2019-05-16T03:15:33.479Z,0.00
2019-05-16T03:16:33.459Z,4.00
2019-05-16T03:17:33.446Z,4.00
2019-05-16T03:18:33.432Z,4.00
2019-05-16T03:19:33.423Z,4.00
2019-05-16T03:20:33.414Z,4.00
2019-05-16T03:21:33.401Z,8.00
2019-05-16T03:22:33.388Z,8.00
2019-05-16T03:23:33.376Z,8.00
2019-05-16T03:24:33.359Z,12.00
2019-05-16T03:25:33.355Z,12.00
2019-05-16T03:26:33.387Z,16.00
2019-05-16T03:27:33.324Z,16.00
2019-05-16T03:28:33.319Z,20.00
2019-05-16T03:29:33.303Z,20.00
2019-05-16T03:30:34.788Z,24.00
2019-05-16T03:31:34.463Z,28.00
2019-05-16T03:32:34.358Z,32.00
2019-05-16T03:33:41.504Z,36.00
2019-05-16T03:34:34.291Z,40.00
2019-05-16T03:35:34.332Z,48.00
2019-05-16T03:36:34.727Z,52.00
2019-05-16T03:37:50.148Z,60.00
2019-05-16T03:38:33.189Z,64.00
2019-05-16T03:39:33.179Z,76.00
2019-05-16T03:40:33.167Z,80.00
2019-05-16T03:41:33.154Z,92.00
2019-05-16T03:42:33.142Z,100.00
2019-05-16T03:43:33.130Z,108.00
2019-05-16T03:44:33.118Z,116.00
2019-05-16T03:45:33.106Z,128.00
2019-05-16T03:46:33.099Z,136.00
2019-05-16T03:47:33.094Z,148.00
2019-05-16T03:48:33.070Z,160.00
2019-05-16T03:49:33.059Z,176.00
2019-05-16T03:50:33.053Z,188.00
2019-05-16T03:51:33.048Z,204.00
2019-05-16T03:52:33.023Z,216.00
2019-05-16T03:53:33.010Z,236.00
2019-05-16T03:54:33.005Z,256.00
2019-05-16T03:55:32.984Z,276.00
2019-05-16T03:56:32.975Z,296.00
2019-05-16T03:57:32.961Z,320.00
2019-05-16T03:58:32.947Z,348.00
2019-05-16T03:59:32.935Z,372.00
2019-05-16T04:00:32.925Z,396.00
2019-05-16T04:01:32.912Z,420.00
2019-05-16T04:02:32.900Z,448.00
2019-05-16T04:03:33.474Z,480.00
2019-05-16T04:04:32.885Z,512.00
2019-05-16T04:05:32.867Z,536.00
2019-05-16T04:06:32.866Z,556.00
2019-05-16T04:07:32.838Z,584.00
2019-05-16T04:08:32.828Z,600.00
2019-05-16T04:09:32.817Z,620.00
2019-05-16T04:10:32.804Z,636.00
2019-05-16T04:11:32.794Z,668.00
2019-05-16T04:12:32.779Z,688.00
2019-05-16T04:13:32.769Z,728.00
2019-05-16T04:14:32.754Z,764.00
2019-05-16T04:15:32.743Z,808.00
2019-05-16T04:16:32.731Z,848.00
2019-05-16T04:17:32.718Z,892.00
2019-05-16T04:18:32.705Z,904.00
2019-05-16T04:19:32.695Z,928.00
2019-05-16T04:20:32.685Z,964.00
2019-05-16T04:21:32.676Z,956.00
2019-05-16T04:22:32.660Z,952.00
2019-05-16T04:23:32.647Z,940.00
2019-05-16T04:24:32.640Z,948.00
2019-05-16T04:25:32.627Z,964.00
2019-05-16T04:26:35.890Z,980.00
2019-05-16T04:27:32.598Z,1028.00
2019-05-16T04:28:32.585Z,1060.00
2019-05-16T04:29:32.575Z,1112.00
2019-05-16T04:30:32.560Z,1160.00
2019-05-16T04:31:32.548Z,1192.00
2019-05-16T04:32:32.537Z,1228.00
2019-05-16T04:33:32.528Z,1240.00
2019-05-16T04:34:32.512Z,1280.00
2019-05-16T04:35:32.503Z,1340.00
2019-05-16T04:36:32.900Z,1396.00
2019-05-16T04:37:32.478Z,1456.00
2019-05-16T04:38:40.916Z,1528.00
2019-05-16T04:39:32.455Z,1580.00
2019-05-16T04:40:32.440Z,1620.00
2019-05-16T04:41:32.429Z,1704.00
2019-05-16T04:42:32.415Z,1768.00
2019-05-16T04:43:32.405Z,1832.00
2019-05-16T04:44:32.395Z,1904.00
2019-05-16T04:45:32.380Z,1976.00
2019-05-16T04:46:32.367Z,2076.00
2019-05-16T04:47:32.355Z,2200.00
2019-05-16T04:48:32.345Z,2304.00
2019-05-16T04:49:32.340Z,2356.00
2019-05-16T04:50:32.318Z,2356.00
2019-05-16T04:51:32.312Z,2392.00
2019-05-16T04:52:32.303Z,2452.00
2019-05-16T04:53:32.283Z,2532.00
2019-05-16T04:54:32.274Z,2612.00
2019-05-16T04:55:32.264Z,2696.00
2019-05-16T04:56:32.256Z,2736.00
2019-05-16T04:57:32.241Z,2764.00
2019-05-16T04:58:32.222Z,2724.00
2019-05-16T04:59:32.220Z,2660.00
2019-05-16T05:00:32.204Z,2576.00
2019-05-16T05:01:32.191Z,2492.00
2019-05-16T05:02:32.178Z,2444.00
2019-05-16T05:03:32.168Z,2396.00
2019-05-16T05:04:32.162Z,2376.00
2019-05-16T05:05:33.361Z,2392.00
2019-05-16T05:06:32.129Z,2492.00
2019-05-16T05:07:32.117Z,2704.00
2019-05-16T05:08:47.459Z,3008.00
2019-05-16T05:09:32.096Z,3300.00
2019-05-16T05:10:32.084Z,3480.00
2019-05-16T05:11:32.080Z,3652.00
2019-05-16T05:12:32.071Z,3836.00
2019-05-16T05:13:32.055Z,3836.00
2019-05-16T05:14:32.041Z,3688.00
2019-05-16T05:15:32.024Z,3584.00
2019-05-16T05:16:32.014Z,3556.00
2019-05-16T05:17:32.002Z,3608.00
2019-05-16T05:18:31.993Z,3764.00
2019-05-16T05:19:31.980Z,4036.00
2019-05-16T05:20:31.968Z,4376.00
2019-05-16T05:21:31.957Z,4732.00
2019-05-16T05:22:31.945Z,5096.00
2019-05-16T05:23:31.984Z,5404.00
2019-05-16T05:24:31.922Z,5620.00
2019-05-16T05:25:31.915Z,5780.00
2019-05-16T05:26:31.906Z,5972.00
2019-05-16T05:27:31.889Z,6128.00
2019-05-16T05:28:31.878Z,6340.00
2019-05-16T05:29:31.867Z,6512.00
2019-05-16T05:30:31.857Z,6612.00
2019-05-16T05:31:35.211Z,6708.00
2019-05-16T05:32:31.835Z,6840.00
2019-05-16T05:33:31.826Z,6904.00
2019-05-16T05:34:31.813Z,6876.00
2019-05-16T05:35:31.804Z,6752.00
2019-05-16T05:36:31.793Z,6528.00
2019-05-16T05:37:31.789Z,6224.00
2019-05-16T05:38:31.770Z,5856.00
2019-05-16T05:39:31.760Z,5404.00
2019-05-16T05:40:31.757Z,4944.00
2019-05-16T05:41:31.741Z,4532.00
2019-05-16T05:42:31.729Z,4216.00
2019-05-16T05:43:31.719Z,3968.00
2019-05-16T05:44:31.709Z,3744.00
2019-05-16T05:45:31.704Z,3604.00
2019-05-16T05:46:31.852Z,3512.00
2019-05-16T05:47:31.687Z,3496.00
2019-05-16T05:48:31.670Z,3480.00
2019-05-16T05:49:31.658Z,3460.00
2019-05-16T05:50:31.647Z,3468.00
2019-05-16T05:51:31.637Z,3468.00
2019-05-16T05:52:31.631Z,3476.00
2019-05-16T05:53:31.617Z,3496.00
2019-05-16T05:54:31.607Z,3520.00
2019-05-16T05:55:31.597Z,3548.00
2019-05-16T05:56:31.586Z,3556.00
2019-05-16T05:57:31.576Z,3572.00
2019-05-16T05:58:31.565Z,3608.00
2019-05-16T05:59:31.555Z,3632.00
2019-05-16T06:00:31.547Z,3664.00
2019-05-16T06:01:31.728Z,3708.00
2019-05-16T06:02:31.530Z,3760.00
2019-05-16T06:03:32.932Z,3788.00
2019-05-16T06:04:31.503Z,3812.00
2019-05-16T06:05:31.493Z,3844.00
2019-05-16T06:06:31.482Z,3892.00
2019-05-16T06:07:31.472Z,3928.00
2019-05-16T06:08:31.512Z,3968.00
2019-05-16T06:09:33.042Z,3984.00
2019-05-16T06:10:31.441Z,4028.00
2019-05-16T06:11:31.453Z,4076.00
2019-05-16T06:12:31.421Z,4112.00
2019-05-16T06:13:31.411Z,4136.00
2019-05-16T06:14:31.401Z,4164.00
2019-05-16T06:15:31.390Z,4168.00
2019-05-16T06:16:31.381Z,4216.00
2019-05-16T06:17:31.370Z,4264.00
2019-05-16T06:18:31.360Z,4296.00
2019-05-16T06:19:31.349Z,4328.00
2019-05-16T06:20:31.339Z,4376.00
2019-05-16T06:21:33.212Z,4432.00
2019-05-16T06:22:31.318Z,4492.00
2019-05-16T06:23:31.386Z,4656.00
2019-05-16T06:24:31.301Z,5572.00
2019-05-16T06:25:31.718Z,5368.00
2019-05-16T06:26:31.278Z,4784.00
2019-05-16T06:27:31.268Z,4760.00
2019-05-16T06:28:31.258Z,4724.00
2019-05-16T06:29:31.250Z,4744.00
2019-05-16T06:30:31.238Z,4768.00
2019-05-16T06:31:31.495Z,4784.00
2019-05-16T06:32:31.220Z,4836.00
2019-05-16T06:33:31.208Z,4880.00
2019-05-16T06:34:31.200Z,4908.00
2019-05-16T06:35:31.188Z,4964.00
2019-05-16T06:36:31.179Z,5016.00
2019-05-16T06:37:31.169Z,5044.00
2019-05-16T06:38:31.161Z,5096.00
2019-05-16T06:39:41.154Z,5184.00
2019-05-16T06:40:31.140Z,5288.00
2019-05-16T06:41:31.130Z,5808.00
2019-05-16T06:42:31.119Z,13712.00
2019-05-16T06:43:31.131Z,21824.00
2019-05-16T06:44:31.120Z,11856.00
2019-05-16T06:45:32.080Z,6964.00
2019-05-16T06:46:31.082Z,7600.00
2019-05-16T06:47:31.076Z,8376.00
2019-05-16T06:48:31.064Z,8964.00
2019-05-16T06:49:31.055Z,7660.00
2019-05-16T06:50:31.044Z,6936.00
2019-05-16T06:51:31.036Z,9328.00
2019-05-16T06:52:31.026Z,10496.00
2019-05-16T06:53:31.017Z,6480.00
2019-05-16T06:54:31.015Z,12016.00
2019-05-16T06:55:30.999Z,20416.00
2019-05-16T06:56:31.028Z,37600.00
2019-05-16T06:57:30.982Z,60128.00
2019-05-16T06:58:43.686Z,60064.00
2019-05-16T06:59:30.963Z,55648.00
2019-05-16T07:00:30.955Z,66112.00
2019-05-16T07:01:30.946Z,73728.00
2019-05-16T07:02:34.418Z,71296.00
2019-05-16T07:03:31.106Z,72256.00
2019-05-16T07:04:30.921Z,72832.00
2019-05-16T07:05:30.912Z,71968.00
2019-05-16T07:06:51.657Z,71488.00
2019-05-16T07:07:30.936Z,70560.00
2019-05-16T07:08:31.309Z,71296.00
2019-05-16T07:09:30.884Z,68896.00
2019-05-16T07:10:30.890Z,68320.00
2019-05-16T07:11:30.873Z,69408.00
2019-05-16T07:12:33.850Z,69568.00
2019-05-16T07:13:30.861Z,68768.00
2019-05-16T07:14:31.441Z,70592.00
2019-05-16T07:15:30.852Z,72256.00
2019-05-16T07:16:30.849Z,73152.00
2019-05-16T07:17:30.845Z,76096.00
2019-05-16T07:18:31.249Z,79264.00
2019-05-16T07:19:30.845Z,74720.00
2019-05-16T07:20:30.837Z,77376.00
2019-05-16T07:21:31.289Z,77472.00
2019-05-16T07:22:31.338Z,73472.00
2019-05-16T07:23:30.828Z,77984.00
2019-05-16T07:24:30.877Z,74368.00
2019-05-16T07:25:30.824Z,40736.00
2019-05-16T07:26:31.089Z,35904.00
2019-05-16T07:27:31.046Z,56096.00
2019-05-16T07:28:30.818Z,55200.00
2019-05-16T07:29:31.027Z,51584.00
2019-05-16T07:30:30.813Z,43264.00
2019-05-16T07:31:30.812Z,46944.00
2019-05-16T07:32:30.809Z,52416.00
2019-05-16T07:33:31.383Z,33088.00
2019-05-16T07:34:31.265Z,46496.00
2019-05-16T07:35:30.851Z,33440.00
2019-05-16T07:36:31.590Z,41600.00
2019-05-16T07:37:31.592Z,54720.00
2019-05-16T07:38:31.141Z,59680.00
2019-05-16T07:39:30.851Z,56832.00
2019-05-16T07:40:30.946Z,55040.00
2019-05-16T07:41:31.155Z,81920.00
2019-05-16T07:42:30.908Z,69504.00
2019-05-16T07:43:31.174Z,85856.00
2019-05-16T07:44:31.193Z,88448.00
2019-05-16T07:45:30.954Z,90208.00
2019-05-16T07:46:31.618Z,94528.00
2019-05-16T07:47:31.042Z,87680.00
2019-05-16T07:48:31.762Z,85888.00
2019-05-16T07:49:30.817Z,96256.00
2019-05-16T07:50:30.766Z,94144.00
2019-05-16T07:51:31.125Z,92192.00
2019-05-16T07:52:35.847Z,96768.00
2019-05-16T07:53:33.178Z,93728.00
2019-05-16T07:54:34.427Z,94592.00
2019-05-16T07:55:30.936Z,91456.00
2019-05-16T07:56:31.231Z,90016.00
2019-05-16T07:57:30.768Z,91904.00
2019-05-16T07:58:31.484Z,91712.00
2019-05-16T07:59:30.777Z,89600.00
2019-05-16T08:00:48.386Z,97856.00
2019-05-16T08:01:30.933Z,88224.00
2019-05-16T08:02:31.271Z,92288.00
2019-05-16T08:03:30.776Z,92064.00
2019-05-16T08:04:30.782Z,92416.00
2019-05-16T08:05:33.556Z,88384.00
2019-05-16T08:06:33.965Z,94176.00
2019-05-16T08:07:33.534Z,94720.00
2019-05-16T08:08:31.665Z,90816.00
2019-05-16T08:09:30.870Z,93696.00
2019-05-16T08:10:40.259Z,91232.00
2019-05-16T08:11:30.796Z,89408.00
2019-05-16T08:12:33.035Z,86432.00
2019-05-16T08:13:31.109Z,84224.00
2019-05-16T08:14:34.841Z,84064.00
2019-05-16T08:15:30.806Z,84160.00
2019-05-16T08:16:30.916Z,82240.00
2019-05-16T08:17:31.527Z,85792.00
2019-05-16T08:18:30.829Z,86720.00
2019-05-16T08:19:30.913Z,84480.00
2019-05-16T08:20:31.345Z,86016.00
2019-05-16T08:21:31.046Z,90336.00
2019-05-16T08:22:30.991Z,84864.00
2019-05-16T08:23:30.949Z,92352.00
2019-05-16T08:25:31.449Z,92864.00
2019-05-16T08:26:32.217Z,96384.00
2019-05-16T08:27:31.504Z,90560.00
2019-05-16T08:28:31.183Z,97920.00
2019-05-16T08:29:31.701Z,102624.00
2019-05-16T08:31:31.746Z,92224.00
2019-05-16T08:32:31.343Z,91424.00
2019-05-16T08:33:21.260Z,97088.00
2019-05-16T08:33:32.091Z,88192.00
2019-05-16T08:34:32.208Z,86176.00
2019-05-16T08:35:31.663Z,72384.00
2019-05-16T08:36:31.443Z,59904.00
2019-05-16T08:37:38.458Z,83648.00
2019-05-16T08:38:31.114Z,100704.00
2019-05-16T08:39:31.317Z,98368.00
2019-05-16T08:40:31.600Z,96544.00
2019-05-16T08:41:31.712Z,105696.00
2019-05-16T08:42:32.239Z,98336.00
2019-05-16T08:43:31.730Z,101120.00
2019-05-16T08:44:32.368Z,84096.00
2019-05-16T08:45:31.552Z,52800.00
2019-05-16T08:46:32.299Z,60096.00
2019-05-16T08:47:32.155Z,78720.00
2019-05-16T08:48:32.143Z,80288.00
2019-05-16T08:49:30.931Z,107040.00
2019-05-16T08:50:05.721Z,90432.00
2019-05-16T08:50:35.111Z,88672.00
2019-05-16T08:51:33.200Z,72832.00
2019-05-16T08:52:31.699Z,55680.00
2019-05-16T08:53:31.846Z,57728.00
2019-05-16T08:55:31.451Z,35072.00
2019-05-16T08:56:31.889Z,32800.00
2019-05-16T08:57:32.725Z,31904.00
2019-05-16T08:58:34.375Z,28576.00
2019-05-16T08:59:33.941Z,25824.00
2019-05-16T09:00:33.457Z,25888.00
2019-05-16T09:01:34.965Z,30112.00
2019-05-16T09:02:36.442Z,55744.00
2019-05-16T09:03:32.290Z,132032.00
2019-05-16T09:04:33.792Z,137568.00
2019-05-16T09:05:31.612Z,135936.00
2019-05-16T09:06:32.048Z,112704.00
2019-05-16T09:07:31.840Z,131392.00
2019-05-16T09:08:30.977Z,115584.00
2019-05-16T09:10:30.562Z,40352.00
2019-05-16T09:10:31.044Z,116352.00
2019-05-16T09:10:59.660Z,92032.00
2019-05-16T09:11:40.704Z,95296.00
2019-05-16T09:12:30.985Z,80800.00
2019-05-16T09:13:30.990Z,43104.00
2019-05-16T09:14:35.202Z,72480.00
2019-05-16T09:15:31.040Z,60288.00
2019-05-16T09:16:31.005Z,45024.00
2019-05-16T09:17:31.005Z,29024.00
2019-05-16T09:18:40.549Z,27136.00
2019-05-16T09:19:31.010Z,86496.00
2019-05-16T09:20:31.011Z,33376.00
2019-05-16T09:21:31.020Z,33536.00
2019-05-16T09:22:31.022Z,38880.00
2019-05-16T09:23:31.017Z,28160.00
2019-05-16T09:24:31.019Z,28160.00
2019-05-16T09:25:31.023Z,22304.00
2019-05-16T09:26:31.022Z,22016.00
2019-05-16T09:27:31.020Z,21824.00
2019-05-16T09:28:31.021Z,22944.00
2019-05-16T09:29:31.023Z,36096.00
2019-05-16T09:30:31.021Z,26208.00
2019-05-16T09:31:31.024Z,23296.00
2019-05-16T09:32:31.023Z,23264.00
2019-05-16T09:33:31.017Z,24192.00
2019-05-16T09:34:31.018Z,24192.00
2019-05-16T09:35:31.026Z,24768.00
2019-05-16T09:36:31.012Z,25824.00
2019-05-16T09:37:31.012Z,24992.00
2019-05-16T09:38:31.009Z,25664.00
2019-05-16T09:39:31.007Z,27808.00
2019-05-16T09:40:31.007Z,28256.00
2019-05-16T09:41:46.279Z,27936.00
2019-05-16T09:42:31.000Z,28032.00
2019-05-16T09:43:30.998Z,26784.00
2019-05-16T09:44:30.995Z,25792.00
2019-05-16T09:45:30.994Z,24928.00
2019-05-16T09:46:31.012Z,24096.00
2019-05-16T09:47:30.992Z,24416.00
2019-05-16T09:48:30.994Z,28032.00
2019-05-16T09:49:30.993Z,29568.00
2019-05-16T09:50:30.983Z,37024.00
2019-05-16T09:51:30.981Z,47168.00
2019-05-16T09:52:30.974Z,33440.00
2019-05-16T09:53:30.973Z,32384.00
2019-05-16T09:54:30.968Z,30688.00
2019-05-16T09:55:30.968Z,27776.00
2019-05-16T09:56:30.963Z,25984.00
2019-05-16T09:57:30.962Z,27584.00
2019-05-16T09:58:30.958Z,24256.00
2019-05-16T09:59:30.956Z,24032.00
2019-05-16T10:00:30.958Z,24832.00
2019-05-16T10:01:30.957Z,25472.00
2019-05-16T10:02:30.947Z,28032.00
2019-05-16T10:03:30.947Z,26624.00
2019-05-16T10:04:30.943Z,26560.00
2019-05-16T10:05:30.940Z,26912.00
2019-05-16T10:06:30.935Z,48256.00
2019-05-16T10:07:30.937Z,43648.00
2019-05-16T10:08:30.930Z,61920.00
2019-05-16T10:09:40.838Z,107488.00
2019-05-16T10:10:30.931Z,87360.00
2019-05-16T10:11:31.961Z,61600.00
2019-05-16T10:12:30.923Z,53664.00
2019-05-16T10:13:30.924Z,57952.00
2019-05-16T10:14:30.923Z,55872.00
2019-05-16T10:15:30.925Z,39168.00
2019-05-16T10:16:30.937Z,34848.00
2019-05-16T10:17:30.935Z,31776.00
2019-05-16T10:18:30.930Z,25568.00
2019-05-16T10:19:30.927Z,23616.00
2019-05-16T10:20:30.927Z,23392.00
2019-05-16T10:21:30.927Z,23264.00
2019-05-16T10:22:30.925Z,23712.00
2019-05-16T10:23:30.925Z,25056.00
2019-05-16T10:24:30.927Z,26560.00
2019-05-16T10:25:30.940Z,29568.00
2019-05-16T10:26:30.927Z,30816.00
2019-05-16T10:27:30.921Z,36608.00
2019-05-16T10:28:30.924Z,38432.00
2019-05-16T10:29:30.928Z,45632.00
2019-05-16T10:30:30.920Z,42784.00
2019-05-16T10:31:41.611Z,33248.00
2019-05-16T10:32:30.925Z,36096.00
2019-05-16T10:33:30.916Z,41280.00
2019-05-16T10:34:30.920Z,41248.00
2019-05-16T10:35:30.914Z,37920.00
2019-05-16T10:36:30.918Z,54112.00
2019-05-16T10:37:30.918Z,47552.00
2019-05-16T10:38:30.911Z,45728.00
2019-05-16T10:39:30.912Z,68288.00
2019-05-16T10:40:30.912Z,83552.00
2019-05-16T10:41:30.913Z,82208.00
2019-05-16T10:42:30.915Z,80352.00
2019-05-16T10:43:30.917Z,74048.00
2019-05-16T10:44:30.920Z,75744.00
2019-05-16T10:45:30.925Z,72864.00
2019-05-16T10:46:30.926Z,30528.00
2019-05-16T10:47:31.478Z,26112.00
2019-05-16T10:48:30.936Z,39136.00
2019-05-16T10:49:36.780Z,61056.00
2019-05-16T10:50:30.976Z,60768.00
2019-05-16T10:51:30.964Z,77856.00
2019-05-16T10:52:30.951Z,54528.00
2019-05-16T10:53:57.576Z,67808.00
2019-05-16T10:54:30.979Z,73856.00
2019-05-16T10:55:30.970Z,73088.00
2019-05-16T10:56:30.990Z,48480.00
2019-05-16T10:57:31.134Z,48160.00
2019-05-16T10:58:37.233Z,43264.00
2019-05-16T11:00:00.465Z,42720.00
2019-05-16T11:00:57.519Z,34432.00
2019-05-16T11:01:31.466Z,35360.00
2019-05-16T11:02:31.087Z,42144.00
2019-05-16T11:03:31.076Z,50080.00
2019-05-16T11:04:49.559Z,55872.00
2019-05-16T11:05:36.068Z,33504.00
2019-05-16T11:06:31.023Z,59808.00
2019-05-16T11:07:31.027Z,68288.00
2019-05-16T11:08:31.029Z,44608.00
2019-05-16T11:09:31.034Z,61440.00
2019-05-16T11:10:31.117Z,53344.00
2019-05-16T11:11:31.045Z,34016.00
2019-05-16T11:12:46.019Z,29472.00
2019-05-16T11:13:31.055Z,26272.00
2019-05-16T11:14:31.059Z,25184.00
2019-05-16T11:15:31.064Z,25568.00
2019-05-16T11:16:31.067Z,24992.00
2019-05-16T11:17:31.077Z,22944.00
2019-05-16T11:18:31.073Z,20544.00
2019-05-16T11:19:31.076Z,19584.00
2019-05-16T11:20:31.110Z,19072.00
2019-05-16T11:21:31.080Z,18400.00
2019-05-16T11:22:31.096Z,17632.00
2019-05-16T11:23:31.558Z,18016.00
2019-05-16T11:24:31.186Z,18464.00
2019-05-16T11:25:32.653Z,19072.00
2019-05-16T11:26:31.080Z,19296.00
2019-05-16T11:27:31.081Z,19808.00
2019-05-16T11:28:31.187Z,21024.00
2019-05-16T11:29:31.079Z,22464.00
2019-05-16T11:30:31.136Z,22272.00
2019-05-16T11:31:31.123Z,20896.00
2019-05-16T11:32:31.078Z,20800.00
2019-05-16T11:33:31.072Z,20000.00
2019-05-16T11:34:31.070Z,18528.00
2019-05-16T11:35:31.070Z,17728.00
2019-05-16T11:36:31.063Z,17568.00
2019-05-16T11:37:31.061Z,18144.00
2019-05-16T11:38:31.057Z,18720.00
2019-05-16T11:39:31.059Z,19232.00
2019-05-16T11:40:31.053Z,19968.00
2019-05-16T11:41:31.049Z,19360.00
2019-05-16T11:42:31.053Z,17536.00
2019-05-16T11:43:31.048Z,15968.00
2019-05-16T11:44:31.044Z,14592.00
2019-05-16T11:45:31.036Z,13480.00
2019-05-16T11:46:31.052Z,12824.00
2019-05-16T11:47:31.029Z,12352.00
2019-05-16T11:48:31.025Z,12540.00
2019-05-16T11:49:31.021Z,13660.00
2019-05-16T11:50:31.018Z,15032.00
2019-05-16T11:51:31.018Z,16068.00
2019-05-16T11:52:31.008Z,17376.00
2019-05-16T11:53:31.004Z,19520.00
2019-05-16T11:54:31.000Z,24288.00
2019-05-16T11:55:34.179Z,26112.00
2019-05-16T11:56:30.992Z,26464.00
2019-05-16T11:57:30.987Z,30048.00
2019-05-16T11:58:30.983Z,31456.00
2019-05-16T11:59:30.980Z,27744.00
2019-05-16T12:00:30.977Z,29312.00
2019-05-16T12:01:30.976Z,30112.00
2019-05-16T12:02:30.972Z,31296.00
2019-05-16T12:03:30.966Z,32576.00
2019-05-16T12:04:30.976Z,30880.00
2019-05-16T12:05:30.966Z,34400.00
2019-05-16T12:06:30.959Z,29920.00
2019-05-16T12:07:33.363Z,30368.00
2019-05-16T12:08:30.953Z,33888.00
2019-05-16T12:09:34.276Z,30496.00
2019-05-16T12:10:30.950Z,38944.00
2019-05-16T12:11:30.948Z,45536.00
2019-05-16T12:12:30.948Z,51520.00
2019-05-16T12:13:32.929Z,56384.00
2019-05-16T12:14:30.944Z,59168.00
2019-05-16T12:15:30.945Z,60192.00
2019-05-16T12:16:30.950Z,58432.00